createdAt,value
2023-07-19T00:04:19.828Z,89.0
2023-07-19T00:17:19.843Z,90.0
2023-07-19T00:30:19.840Z,91.0
2023-07-19T00:43:19.842Z,92.0
2023-07-19T00:56:19.863Z,92.0
2023-07-19T01:09:19.885Z,92.0
2023-07-19T01:22:19.865Z,91.0
2023-07-19T01:35:19.853Z,88.0
2023-07-19T01:48:19.866Z,87.0
2023-07-19T02:01:20.140Z,87.0
2023-07-19T02:14:19.892Z,90.0
2023-07-19T02:27:19.891Z,91.0
2023-07-19T02:40:19.917Z,93.0
2023-07-19T02:53:19.958Z,92.0
2023-07-19T03:06:19.964Z,91.0
2023-07-19T03:19:19.967Z,86.0
2023-07-19T03:32:19.977Z,86.0
2023-07-19T03:45:19.972Z,87.0
2023-07-19T03:58:19.973Z,90.0
2023-07-19T04:11:20.097Z,91.0
2023-07-19T04:24:20.000Z,85.0
2023-07-19T04:37:20.014Z,78.0
2023-07-19T04:50:20.032Z,81.0
2023-07-19T05:03:20.064Z,83.0
2023-07-19T05:16:20.046Z,84.0
2023-07-19T05:29:20.067Z,84.0
2023-07-19T05:42:20.062Z,83.0
2023-07-19T05:55:20.075Z,78.0
2023-07-19T06:08:24.936Z,76.0
2023-07-19T06:21:20.264Z,73.0
2023-07-19T06:34:20.065Z,68.0
2023-07-19T06:47:20.086Z,65.0
2023-07-19T07:00:20.065Z,61.0
2023-07-19T07:13:20.094Z,62.0
2023-07-19T07:26:20.102Z,55.0
2023-07-19T07:39:20.096Z,56.0
2023-07-19T07:52:20.114Z,56.0
2023-07-19T08:05:20.109Z,58.0
2023-07-19T08:18:20.131Z,59.0
2023-07-19T08:31:20.417Z,52.0
2023-07-19T08:44:20.138Z,51.0
2023-07-19T08:57:20.120Z,56.0
2023-07-19T09:10:20.134Z,55.0
2023-07-19T09:23:20.155Z,55.0
2023-07-19T09:36:20.605Z,57.0
2023-07-19T09:49:20.179Z,55.0
2023-07-19T10:02:20.144Z,59.0
2023-07-19T10:15:22.481Z,60.0
2023-07-19T10:28:20.169Z,52.0
2023-07-19T10:41:20.161Z,48.0
2023-07-19T10:54:22.257Z,48.0
2023-07-19T11:07:20.235Z,50.0
2023-07-19T11:20:20.225Z,54.0
2023-07-19T11:33:20.269Z,56.0
2023-07-19T11:46:20.306Z,53.0
2023-07-19T11:59:20.312Z,45.0
2023-07-19T12:12:20.267Z,44.0
2023-07-19T12:25:20.273Z,44.0
2023-07-19T12:38:20.338Z,42.0
2023-07-19T12:51:20.353Z,44.0
2023-07-19T13:04:20.340Z,43.0
2023-07-19T13:17:22.206Z,41.0
2023-07-19T13:30:23.485Z,42.0
2023-07-19T13:43:20.428Z,44.0
2023-07-19T13:56:20.689Z,43.0
2023-07-19T14:09:22.441Z,42.0
2023-07-19T14:22:20.393Z,44.0
2023-07-19T14:35:20.392Z,42.0
2023-07-19T14:48:20.412Z,42.0
2023-07-19T15:01:20.719Z,42.0
2023-07-19T15:27:20.542Z,45.0
2023-07-19T15:40:20.438Z,55.0
2023-07-19T15:53:20.478Z,58.0
2023-07-19T16:06:20.469Z,62.0
2023-07-19T16:19:20.526Z,55.0
2023-07-19T16:32:20.518Z,59.0
2023-07-19T16:45:20.499Z,63.0
2023-07-19T16:58:20.498Z,69.0
2023-07-19T17:11:20.768Z,72.0
2023-07-19T17:24:20.531Z,74.0
2023-07-19T17:37:20.529Z,76.0
2023-07-19T17:50:20.561Z,76.0
2023-07-19T18:03:20.668Z,75.0
2023-07-19T18:16:20.629Z,75.0
2023-07-19T18:29:20.563Z,79.0
2023-07-19T18:42:20.584Z,85.0
2023-07-19T18:55:20.567Z,86.0
2023-07-19T19:08:20.602Z,92.0
2023-07-19T19:21:20.719Z,93.0
2023-07-19T19:34:20.639Z,95.0
2023-07-19T19:47:20.617Z,95.0
2023-07-19T20:13:20.644Z,96.0
2023-07-19T20:52:21.093Z,97.0
2023-07-19T21:05:20.658Z,96.0
2023-07-19T21:18:20.641Z,96.0
2023-07-19T21:31:20.790Z,97.0
2023-07-19T21:44:20.671Z,97.0
2023-07-19T21:57:20.650Z,97.0
2023-07-19T22:10:20.673Z,97.0
2023-07-19T22:23:20.671Z,97.0
2023-07-19T22:36:20.962Z,97.0
2023-07-19T22:49:20.672Z,97.0
2023-07-19T23:02:20.706Z,97.0
2023-07-19T23:15:20.675Z,97.0
2023-07-19T23:28:20.688Z,97.0
2023-07-19T23:41:20.700Z,97.0
2023-07-19T23:54:20.717Z,96.0
